Flight Track Log - Related Links

Times and Time Zones

All times are in EDT time to prevent confusion due to time zone crossing. See the NKS331 flight status page for this flight to view local times or setup timezone preferences in your user account.

Time Position Orientation Groundspeed Altitude Reporting Facility
EDT Latitude Longitude Course Direction KTS MPH feet Rate Location/Type
Fri 02:12:02 AM 40.7710 -73.7800 115° Southeast 269 310 2,500  Level FlightAware ADS-B
Fri 02:12:30 AM 40.7980 -73.7540 36° Northeast 270 311 3,900 3,000 Climbing FlightAware ADS-B
Fri 02:12:56 AM 40.8300 -73.7360 23° Northeast 279 321 5,200 2,500 Climbing FlightAware ADS-B
Fri 02:13:06 AM 40.8410 -73.7330 12° North 288 331 5,400 1,800 Climbing FlightAware ADS-B
Fri 02:13:36 AM 40.8760 -73.7510 339° North 282 325 6,400 2,600 Climbing FlightAware ADS-B
Fri 02:14:06 AM 40.9000 -73.7920 308° West 281 323 8,000 3,120 Climbing FlightAware ADS-B
Fri 02:14:26 AM 40.9137 -73.8233 300° West 279 321 9,000 2,919 Climbing FlightAware ADS-B
Fri 02:14:43 AM 40.9205 -73.8505 288° West 278 320 9,800 2,714 Climbing FlightAware ADS-B
Fri 02:15:08 AM 40.9313 -73.8926 289° West 289 333 10,900 2,400 Climbing FlightAware ADS-B
Fri 02:15:13 AM 40.9334 -73.9008 289° West 293 337 11,000 968 Climbing FlightAware ADS-B
Fri 02:15:39 AM 40.9453 -73.9470 289° West 326 375 11,400 1,000 Climbing FlightAware ADS-B
Fri 02:15:43 AM 40.9474 -73.9551 289° West 330 380 11,500 1,400 Climbing FlightAware ADS-B
Fri 02:16:09 AM 40.9608 -74.0068 289° West 352 405 12,100 1,548 Climbing FlightAware ADS-B
Fri 02:16:14 AM 40.9634 -74.0165 290° West 353 406 12,300 2,800 Climbing FlightAware ADS-B
Fri 02:16:39 AM 40.9769 -74.0684 289° West 355 409 13,500 2,800 Climbing FlightAware ADS-B
Fri 02:16:44 AM 40.9797 -74.0789 289° West 356 410 13,700 3,200 Climbing FlightAware ADS-B
Fri 02:17:09 AM 40.9929 -74.1303 289° West 348 400 15,100 3,200 Climbing FlightAware ADS-B
Fri 02:17:14 AM 40.9953 -74.1398 289° West 348 400 15,300 1,742 Climbing FlightAware ADS-B
Fri 02:17:40 AM 41.0088 -74.1927 289° West 361 415 16,000 1,548 Climbing FlightAware ADS-B
Fri 02:17:45 AM 41.0114 -74.2033 288° West 366 421 16,100 1,167 Climbing FlightAware ADS-B
Fri 02:18:16 AM 41.0283 -74.2694 289° West 370 426 16,700 1,102 Climbing FlightAware ADS-B
Fri 02:18:34 AM 41.0381 -74.3083 288° West 370 426 17,000 1,400 Climbing FlightAware ADS-B
Fri 02:18:46 AM 41.0452 -74.3362 289° West 386 444 17,400 2,512 Climbing FlightAware ADS-B
Fri 02:19:17 AM 41.0623 -74.4030 289° West 377 434 18,800 2,327 Climbing FlightAware ADS-B
Fri 02:19:35 AM 41.0724 -74.4427 289° West 385 443 19,300 1,800 Climbing FlightAware ADS-B
Fri 02:19:47 AM 41.0791 -74.4693 288° West 382 440 19,700 1,800 Climbing FlightAware ADS-B
Fri 02:20:05 AM 41.0893 -74.5099 288° West 383 441 20,200 1,600 Climbing FlightAware ADS-B
Fri 02:20:17 AM 41.0961 -74.5372 288° West 387 445 20,500 1,455 Climbing FlightAware ADS-B
Fri 02:20:38 AM 41.1082 -74.5850 289° West 394 453 21,000 1,400 Climbing FlightAware ADS-B
Fri 02:20:47 AM 41.1130 -74.6040 289° West 397 457 21,200 1,448 Climbing FlightAware ADS-B
Fri 02:21:07 AM 41.1251 -74.6514 289° West 400 460 21,700 1,429 Climbing FlightAware ADS-B
Fri 02:21:08 AM 41.1261 -74.6549 291° West 400 460 21,700 1,412 Level FlightAware ADS-B
Fri 02:21:24 AM 41.1366 -74.6894 292° West 404 465 22,100 1,263 Climbing FlightAware ADS-B
Fri 02:21:46 AM 41.1553 -74.7393 296° West 413 475 22,500 1,154 Climbing FlightAware ADS-B
Fri 02:22:16 AM 41.1844 -74.8058 300° West 421 484 23,100 1,400 Climbing FlightAware ADS-B
Fri 02:22:46 AM 41.2142 -74.8743 300° West 423 487 23,900 1,770 Climbing FlightAware ADS-B
Fri 02:23:17 AM 41.2435 -74.9419 300° West 420 483 24,900 1,574 Climbing FlightAware ADS-B
Fri 02:23:47 AM 41.2728 -75.0097 300° West 424 488 25,500 1,180 Climbing FlightAware ADS-B
Fri 02:24:18 AM 41.3031 -75.0801 300° West 430 495 26,100 1,082 Climbing FlightAware ADS-B
Fri 02:24:48 AM 41.3330 -75.1494 300° West 435 501 26,600 1,000 Climbing FlightAware ADS-B
Fri 02:25:18 AM 41.3629 -75.2190 300° West 443 510 27,100 1,180 Climbing FlightAware ADS-B
Fri 02:25:49 AM 41.3947 -75.2929 300° West 444 511 27,800 1,180 Climbing FlightAware ADS-B
Fri 02:26:19 AM 41.4253 -75.3645 300° West 448 516 28,300 1,100 Climbing FlightAware ADS-B
Fri 02:26:49 AM 41.4565 -75.4377 300° West 452 520 28,900 1,071 Climbing FlightAware ADS-B
Fri 02:27:15 AM 41.4802 -75.5009 297° West 452 520 29,300 837 Climbing FlightAware ADS-B
Fri 02:27:32 AM 41.4939 -75.5462 292° West 454 522 29,500 923 Climbing FlightAware ADS-B
Fri 02:27:41 AM 41.4991 -75.5689 287° West 452 520 29,700 1,000 Climbing FlightAware ADS-B
Fri 02:27:50 AM 41.5029 -75.5933 282° West 450 518 29,800 1,231 Climbing FlightAware ADS-B
Fri 02:28:20 AM 41.5103 -75.6757 277° West 445 512 30,500 1,700 Climbing FlightAware ADS-B
Fri 02:28:50 AM 41.5178 -75.7572 277° West 437 503 31,500 1,700 Climbing FlightAware ADS-B
Fri 02:29:20 AM 41.5252 -75.8376 277° West 435 501 32,200 1,200 Climbing FlightAware ADS-B
Fri 02:29:50 AM 41.5323 -75.9157 277° West 438 504 32,700 900 Climbing FlightAware ADS-B
Fri 02:30:20 AM 41.5397 -75.9982 277° West 441 507 33,100 492 Climbing FlightAware ADS-B
Fri 02:30:51 AM 41.5471 -76.0808 277° West 451 519 33,200 590 Climbing FlightAware ADS-B
Fri 02:31:21 AM 41.5547 -76.1649 277° West 454 522 33,700 885 Climbing FlightAware ADS-B
Fri 02:31:52 AM 41.5623 -76.2500 277° West 457 526 34,100 1,082 Climbing FlightAware ADS-B
Fri 02:32:22 AM 41.5697 -76.3339 277° West 451 519 34,800 1,300 Climbing FlightAware ADS-B
Fri 02:32:52 AM 41.5768 -76.4160 277° West 445 512 35,400 1,000 Climbing FlightAware ADS-B
Fri 02:33:22 AM 41.5838 -76.4986 276° West 445 512 35,800 590 Climbing FlightAware ADS-B
Fri 02:33:53 AM 41.5910 -76.5824 277° West 446 513 36,000 194 Climbing FlightAware ADS-B
Fri 02:34:24 AM 41.5981 -76.6670 276° West 444 511 36,000  Level FlightAware ADS-B
Fri 02:34:55 AM 41.6050 -76.7500 276° West 445 512 36,000  Level FlightAware ADS-B
Fri 02:35:27 AM 41.6122 -76.8363 276° West 445 512 36,000  Level FlightAware ADS-B
Fri 02:36:02 AM 41.6203 -76.9339 276° West 445 512 36,000  Level FlightAware ADS-B
Fri 02:36:41 AM 41.6289 -77.0396 276° West 443 510 36,000  Level FlightAware ADS-B
Fri 02:37:12 AM 41.6330 -77.0890 276° West 443 510 36,000  Level FlightAware ADS-B
Fri 02:37:28 AM 41.6391 -77.1676 276° West 445 512 36,000  Level FlightAware ADS-B
Fri 02:38:32 AM 41.6500 -77.3090 276° West 444 511 36,000  Level FlightAware ADS-B
Fri 02:39:12 AM 41.6590 -77.4160 276° West 441 507 36,000  Level FlightAware ADS-B
Fri 02:39:57 AM 41.6680 -77.5360 276° West 437 503 36,000  Level FlightAware ADS-B
Fri 02:40:42 AM 41.6770 -77.6590 276° West 434 499 36,000  Level FlightAware ADS-B
Fri 02:41:22 AM 41.6850 -77.7670 276° West 433 498 36,000  Level FlightAware ADS-B
Fri 02:42:02 AM 41.6930 -77.8700 276° West 428 493 36,000  Level FlightAware ADS-B
Fri 02:42:42 AM 41.7000 -77.9750 275° West 427 491 36,000 -71 Level FlightAware ADS-B
Fri 02:43:27 AM 41.7090 -78.0880 276° West 429 494 35,900  Descending FlightAware ADS-B
Fri 02:44:12 AM 41.7170 -78.2060 275° West 430 495 36,000 71 Climbing FlightAware ADS-B
Fri 02:44:52 AM 41.7250 -78.3130 276° West 431 496 36,000  Level FlightAware ADS-B
Fri 02:47:14 AM 41.7510 -78.7030 275° West 437 503 36,000  Level FlightAware ADS-B
Fri 02:48:02 AM 41.7610 -78.8580 275° West 437 503 36,000  Level FlightAware ADS-B
Fri 02:48:44 AM 41.7680 -78.9730 275° West 436 502 36,000  Level FlightAware ADS-B
Fri 02:49:26 AM 41.7760 -79.0850 276° West 435 501 36,000  Level FlightAware ADS-B
Fri 02:50:04 AM 41.7820 -79.1880 275° West 433 498 36,000  Level FlightAware ADS-B
Fri 02:51:04 AM 41.7910 -79.3440 274° West 430 495 36,000  Level FlightAware ADS-B
Fri 02:51:42 AM 41.7970 -79.4440 275° West 430 495 36,000  Level FlightAware ADS-B
Fri 02:52:25 AM 41.8040 -79.5590 275° West 431 496 36,000  Level FlightAware ADS-B
Fri 02:53:09 AM 41.8110 -79.6770 275° West 432 497 36,000  Level FlightAware ADS-B
Fri 02:53:53 AM 41.8180 -79.7980 274° West 433 498 36,000 70 Level FlightAware ADS-B
Fri 02:54:35 AM 41.8240 -79.9080 274° West 430 495 36,100  Climbing FlightAware ADS-B
Fri 02:55:11 AM 41.8290 -80.0020 274° West 429 494 36,000 -73 Descending FlightAware ADS-B
Fri 02:55:57 AM 41.8360 -80.1260 274° West 427 491 36,000  Level FlightAware ADS-B
Fri 02:56:41 AM 41.8420 -80.2400 274° West 428 493 36,000  Level FlightAware ADS-B
Fri 02:57:23 AM 41.8480 -80.3500 274° West 429 494 36,000  Level FlightAware ADS-B
Fri 02:58:03 AM 41.8540 -80.4570 274° West 431 496 36,000  Level FlightAware ADS-B
Fri 02:58:43 AM 41.8590 -80.5650 274° West 430 495 36,000  Level FlightAware ADS-B
Fri 02:59:30 AM 41.8650 -80.6900 274° West 428 493 36,000  Level FlightAware ADS-B
Fri 03:00:13 AM 41.8700 -80.8030 273° West 427 491 36,000  Level FlightAware ADS-B
Fri 03:00:49 AM 41.8750 -80.8980 274° West 425 489 36,000  Level FlightAware ADS-B
Fri 03:01:36 AM 41.8800 -81.0230 273° West 427 491 36,000  Level FlightAware ADS-B
Fri 03:02:19 AM 41.8860 -81.1340 274° West 426 490 36,000  Level FlightAware ADS-B
Fri 03:03:01 AM 41.8900 -81.2460 273° West 426 490 36,000  Level FlightAware ADS-B
Fri 03:03:41 AM 41.8950 -81.3510 274° West 426 490 36,000  Level FlightAware ADS-B
Fri 03:04:19 AM 41.8990 -81.4510 273° West 427 491 36,000  Level FlightAware ADS-B
Fri 03:05:03 AM 41.9040 -81.5650 273° West 424 488 36,000  Level FlightAware ADS-B
Fri 03:05:47 AM 41.9090 -81.6830 273° West 423 487 36,000  Level FlightAware ADS-B
Fri 03:06:29 AM 41.9130 -81.7910 273° West 421 484 36,000  Level FlightAware ADS-B
Fri 03:07:09 AM 41.9170 -81.8960 273° West 421 484 36,000  Level FlightAware ADS-B
Fri 03:07:50 AM 41.9210 -82.0050 273° West 423 487 36,000  Level FlightAware ADS-B
Fri 03:08:35 AM 41.9250 -82.1180 273° West 424 488 36,000  Level FlightAware ADS-B
Fri 03:09:13 AM 41.9290 -82.2170 273° West 423 487 36,000 73 Level FlightAware ADS-B
Fri 03:09:57 AM 41.9330 -82.3320 273° West 421 484 36,100  Climbing FlightAware ADS-B
Fri 03:10:35 AM 41.9360 -82.4290 272° West 417 480 36,000 -70 Descending FlightAware ADS-B
Fri 03:11:23 AM 41.9400 -82.5520 273° West 414 476 36,000  Level FlightAware ADS-B
Fri 03:12:04 AM 41.9430 -82.6610 272° West 412 474 36,000  Level FlightAware ADS-B
Fri 03:12:48 AM 41.9470 -82.7730 273° West 410 472 36,000  Level FlightAware ADS-B
Fri 03:13:30 AM 41.9500 -82.8790 272° West 407 468 36,000  Level FlightAware ADS-B
Fri 03:14:12 AM 41.9530 -82.9840 272° West 407 468 36,000  Level FlightAware ADS-B
Fri 03:14:46 AM 41.9550 -83.0700 272° West 406 467 36,000  Level FlightAware ADS-B
Fri 03:15:34 AM 41.9590 -83.1910 273° West 406 467 36,000  Level FlightAware ADS-B
Fri 03:16:18 AM 41.9620 -83.3030 272° West 406 467 36,000  Level FlightAware ADS-B
Fri 03:16:54 AM 41.9640 -83.3920 272° West 407 468 36,000  Level FlightAware ADS-B
Fri 03:17:42 AM 41.9670 -83.5120 272° West 407 468 36,000  Level FlightAware ADS-B
Fri 03:18:20 AM 41.9690 -83.6080 272° West 406 467 36,000  Level FlightAware ADS-B
Fri 03:19:06 AM 41.9720 -83.7230 272° West 404 465 36,000  Level FlightAware ADS-B
Fri 03:19:48 AM 41.9740 -83.8280 272° West 404 465 36,000  Level FlightAware ADS-B
Fri 03:20:23 AM 41.9760 -83.9170 272° West 403 464 36,000  Level FlightAware ADS-B
Fri 03:21:07 AM 41.9780 -84.0220 272° West 403 464 36,000  Level FlightAware ADS-B
Fri 03:21:54 AM 41.9800 -84.1430 271° West 401 461 36,000  Level FlightAware ADS-B
Fri 03:22:37 AM 41.9820 -84.2470 272° West 400 460 36,000  Level FlightAware ADS-B
Fri 03:23:18 AM 41.9840 -84.3540 271° West 399 459 36,000  Level FlightAware ADS-B
Fri 03:23:54 AM 41.9850 -84.4440 271° West 398 458 36,000  Level FlightAware ADS-B
Fri 03:24:41 AM 41.9870 -84.5580 271° West 397 457 36,000  Level FlightAware ADS-B
Fri 03:25:14 AM 41.9880 -84.6400 271° West 398 458 36,000  Level FlightAware ADS-B
Fri 03:25:59 AM 41.9900 -84.7480 271° West 398 458 36,000  Level FlightAware ADS-B
Fri 03:26:41 AM 41.9910 -84.8540 271° West 398 458 36,000  Level FlightAware ADS-B
Fri 03:27:21 AM 41.9920 -84.9520 271° West 396 456 36,000  Level FlightAware ADS-B
Fri 03:28:03 AM 41.9930 -85.0560 271° West 393 452 36,000  Level FlightAware ADS-B
Fri 03:28:45 AM 41.9940 -85.1590 271° West 390 449 36,000  Level FlightAware ADS-B
Fri 03:29:28 AM 41.9950 -85.2580 271° West 387 445 36,000  Level FlightAware ADS-B
Fri 03:30:11 AM 41.9960 -85.3630 271° West 385 443 36,000 -182 Level FlightAware ADS-B
Fri 03:31:07 AM 41.9860 -85.4970 264° West 401 461 35,700 -788 Descending FlightAware ADS-B
Fri 03:31:50 AM 41.9540 -85.5920 246° West 397 457 34,700 -1,704 Descending FlightAware ADS-B
Fri 03:32:28 AM 41.9260 -85.6790 247° West 396 456 33,400 -2,148 Descending FlightAware ADS-B
Fri 03:33:11 AM 41.9220 -85.7800 267° West 376 433 31,800 -2,207 Descending FlightAware ADS-B
Fri 03:33:55 AM 41.9260 -85.8820 273° West 373 429 30,200 -2,138 Descending FlightAware ADS-B
Fri 03:34:38 AM 41.9290 -85.9790 272° West 362 417 28,700 -2,100 Descending FlightAware ADS-B
Fri 03:35:15 AM 41.9320 -86.0620 273° West 355 409 27,400 -2,296 Descending FlightAware ADS-B
Fri 03:35:59 AM 41.9360 -86.1580 273° West 359 413 25,600 -2,471 Descending FlightAware ADS-B
Fri 03:36:40 AM 41.9390 -86.2500 273° West 360 414 23,900 -2,500 Descending FlightAware ADS-B
Fri 03:37:23 AM 41.9430 -86.3460 273° West 358 412 22,100 -2,414 Descending FlightAware ADS-B
Fri 03:38:07 AM 41.9460 -86.4430 272° West 355 409 20,400 -2,241 Descending FlightAware ADS-B
Fri 03:38:46 AM 41.9490 -86.5270 273° West 349 402 19,000 -2,051 Descending FlightAware ADS-B
Fri 03:39:26 AM 41.9520 -86.6130 273° West 339 390 17,700 -1,683 Descending FlightAware ADS-B
Fri 03:40:08 AM 41.9550 -86.6990 273° West 323 372 16,700 -1,011 Descending FlightAware ADS-B
Fri 03:40:55 AM 41.9580 -86.7930 272° West 325 374 16,200 -333 Descending FlightAware ADS-B
Fri 03:41:38 AM 41.9600 -86.8820 272° West 328 377 16,200  Level FlightAware ADS-B
Fri 03:42:17 AM 41.9630 -86.9590 273° West 327 376 16,200  Level FlightAware ADS-B
Fri 03:43:02 AM 41.9650 -87.0490 272° West 304 350 16,200 -552 Level FlightAware ADS-B
Fri 03:43:44 AM 41.9680 -87.1260 273° West 299 344 15,400 -2,313 Descending FlightAware ADS-B
Fri 03:44:25 AM 41.9700 -87.2060 272° West 332 382 13,000 -2,073 Descending FlightAware ADS-B
Fri 03:48:19 AM 41.9420 -87.6010 265° West 284 327 5,900 -1,783 Descending FlightAware ADS-B
Fri 03:48:34 AM 41.9250 -87.6070 195° South 281 323 5,600 -1,256 Descending FlightAware ADS-B
Fri 03:49:02 AM 41.8860 -87.6160 190° South 279 321 5,000 -923 Descending FlightAware ADS-B
Fri 03:49:26 AM 41.8580 -87.6130 175° South 266 306 4,800 -436 Descending FlightAware ADS-B
Fri 03:49:57 AM 41.8220 -87.6070 173° South 249 287 4,600 -436 Descending FlightAware ADS-B
Fri 03:50:21 AM 41.7950 -87.6040 175° South 250 288 4,400 -462 Descending FlightAware ADS-B
Fri 03:50:49 AM 41.7670 -87.6220 206° Southwest 211 243 4,200 -300 Descending FlightAware ADS-B
Fri 03:51:01 AM 41.7640 -87.6360 254° West 190 219 4,200  Level FlightAware ADS-B
Fri 03:52:04 AM 41.7970 -87.6850 312° West 173 199 4,200  Level FlightAware ADS-B
Fri 03:52:32 AM 41.8130 -87.7030 320° Northwest 173 199 4,200  Level FlightAware ADS-B
Fri 03:52:43 AM 41.8200 -87.7110 320° Northwest 173 199 4,200  Level FlightAware ADS-B
Fri 03:53:13 AM 41.8390 -87.7320 321° Northwest 174 200 4,200 -111 Level FlightAware ADS-B
Fri 03:53:37 AM 41.8530 -87.7480 320° Northwest 175 201 4,100 -558 Descending FlightAware ADS-B
Fri 03:53:56 AM 41.8650 -87.7610 321° Northwest 171 197 3,800 -1,021 Descending FlightAware ADS-B
Fri 03:54:24 AM 41.8820 -87.7800 320° Northwest 169 194 3,300 -900 Descending FlightAware ADS-B
Fri 03:54:36 AM 41.8890 -87.7880 320° Northwest 168 193 3,200 -706 Descending FlightAware ADS-B
Fri 03:54:58 AM 41.9020 -87.8020 321° Northwest 168 193 2,900 -792 Descending FlightAware ADS-B
Fri 03:55:29 AM 41.9180 -87.8210 319° Northwest 141 162 2,500 -750 Descending FlightAware ADS-B
Fri 03:55:54 AM 41.9310 -87.8360 319° Northwest 132 152 2,200 -712 Descending FlightAware ADS-B
Fri 03:56:28 AM 41.9470 -87.8530 322° Northwest 132 152 1,800 -774 Descending FlightAware ADS-B
Fri 03:56:56 AM 41.9600 -87.8680 319° Northwest 131 151 1,400 -737 Descending FlightAware ADS-B
Fri 03:57:25 AM 41.9740 -87.8840 320° Northwest 132 152 1,100 -612 Descending FlightAware ADS-B
Fri 03:57:45 AM 41.9840 -87.8940 323° Northwest 134 154 900 -600 Descending FlightAware ADS-B
Fri 03:58:21 AM 41.9940 -87.9060 318° Northwest 28 32 -1,500 Descending FlightAware ADS-B
Fri 03:58:51 AM 41.9950 -87.9090 294° West 34 39  Level FlightAware ADS-B
Fri 03:59:19 AM 41.9950 -87.9090 294° West 25 29  Level FlightAware ADS-B
Fri 03:59:43 AM 41.9940 -87.9080 143° Southeast 29 33  Level FlightAware ADS-B
Fri 03:59:58 AM 41.9930 -87.9070 143° Southeast 34 39  Level FlightAware ADS-B
Fri 04:00:25 AM 41.9920 -87.9060 143° Southeast 17 20  Level FlightAware ADS-B
Fri 04:01:01 AM 41.9900 -87.9030 132° Southeast 20 23  Level FlightAware ADS-B
Fri 04:01:35 AM 41.9870 -87.9010 154° Southeast 20 23  Level FlightAware ADS-B
Fri 04:02:45 AM 41.9830 -87.8960 137° Southeast 17 20  Level FlightAware ADS-B
Fri 04:02:54 AM 41.9820 -87.8950 143° Southeast 18 21  Level FlightAware ADS-B
Fri 04:04:24 AM 41.9790 -87.8950 180° South 26 30  Level FlightAware ADS-B

Login

Don't have an account? Register now (free) for customized features, flight alerts, and more!